sensor_id;sensor_type;location;lat;lon;timestamp;pressure;altitude;pressure_sealevel;temperature;humidity
64025;BME280;50266;57.446;26.936;2023-02-13T00:00:15;99833.5;;;0.3;100.0
64025;BME280;50266;57.446;26.936;2023-02-13T00:01:14;99828.94;;;0.27;100.0
64025;BME280;50266;57.446;26.936;2023-02-13T00:02:14;99834.77;;;0.27;100.0
64025;BME280;50266;57.446;26.936;2023-02-13T00:03:14;99838.66;;;0.28;100.0
64025;BME280;50266;57.446;26.936;2023-02-13T00:04:14;99835.09;;;0.3;100.0
64025;BME280;50266;57.446;26.936;2023-02-13T00:05:14;99826.95;;;0.28;100.0
64025;BME280;50266;57.446;26.936;2023-02-13T00:06:14;99829.94;;;0.26;100.0
64025;BME280;50266;57.446;26.936;2023-02-13T00:07:14;99826.73;;;0.28;100.0
64025;BME280;50266;57.446;26.936;2023-02-13T00:08:14;99832.8;;;0.3;100.0
64025;BME280;50266;57.446;26.936;2023-02-13T00:09:14;99828.22;;;0.3;100.0
64025;BME280;50266;57.446;26.936;2023-02-13T00:10:14;99829.66;;;0.29;100.0
64025;BME280;50266;57.446;26.936;2023-02-13T00:11:14;99825.9;;;0.29;100.0
64025;BME280;50266;57.446;26.936;2023-02-13T00:12:14;99829.58;;;0.27;100.0
64025;BME280;50266;57.446;26.936;2023-02-13T00:13:14;99829.3;;;0.28;100.0
64025;BME280;50266;57.446;26.936;2023-02-13T00:14:15;99827.19;;;0.3;100.0
64025;BME280;50266;57.446;26.936;2023-02-13T00:15:14;99825.29;;;0.27;100.0
64025;BME280;50266;57.446;26.936;2023-02-13T00:16:14;99823.78;;;0.26;100.0
64025;BME280;50266;57.446;26.936;2023-02-13T00:17:14;99826.45;;;0.26;100.0
64025;BME280;50266;57.446;26.936;2023-02-13T00:18:14;99828.09;;;0.25;100.0
64025;BME280;50266;57.446;26.936;2023-02-13T00:19:14;99821.0;;;0.29;100.0
64025;BME280;50266;57.446;26.936;2023-02-13T00:20:14;99823.69;;;0.25;100.0
64025;BME280;50266;57.446;26.936;2023-02-13T00:21:14;99821.73;;;0.3;100.0
64025;BME280;50266;57.446;26.936;2023-02-13T00:22:14;99818.17;;;0.26;100.0
64025;BME280;50266;57.446;26.936;2023-02-13T00:23:14;99816.33;;;0.25;100.0
64025;BME280;50266;57.446;26.936;2023-02-13T00:24:14;99816.67;;;0.27;100.0
64025;BME280;50266;57.446;26.936;2023-02-13T00:25:14;99820.48;;;0.27;100.0
64025;BME280;50266;57.446;26.936;2023-02-13T00:26:15;99812.96;;;0.25;100.0
64025;BME280;50266;57.446;26.936;2023-02-13T00:27:14;99796.86;;;0.24;100.0
64025;BME280;50266;57.446;26.936;2023-02-13T00:28:14;99823.43;;;0.27;100.0
64025;BME280;50266;57.446;26.936;2023-02-13T00:29:14;99816.11;;;0.31;100.0
64025;BME280;50266;57.446;26.936;2023-02-13T00:30:15;99814.86;;;0.31;100.0
64025;BME280;50266;57.446;26.936;2023-02-13T00:31:16;99824.05;;;0.32;100.0
64025;BME280;50266;57.446;26.936;2023-02-13T00:32:14;99822.34;;;0.3;100.0
64025;BME280;50266;57.446;26.936;2023-02-13T00:33:14;99817.67;;;0.29;100.0
64025;BME280;50266;57.446;26.936;2023-02-13T00:34:14;99817.87;;;0.31;100.0
64025;BME280;50266;57.446;26.936;2023-02-13T00:35:14;99822.14;;;0.29;100.0
64025;BME280;50266;57.446;26.936;2023-02-13T00:36:16;99814.7;;;0.28;100.0
64025;BME280;50266;57.446;26.936;2023-02-13T00:37:14;99814.07;;;0.24;100.0
64025;BME280;50266;57.446;26.936;2023-02-13T00:38:14;99813.0;;;0.28;100.0
64025;BME280;50266;57.446;26.936;2023-02-13T00:39:15;99814.95;;;0.26;100.0
64025;BME280;50266;57.446;26.936;2023-02-13T00:40:14;99808.45;;;0.3;100.0
64025;BME280;50266;57.446;26.936;2023-02-13T00:41:15;99816.14;;;0.27;100.0
64025;BME280;50266;57.446;26.936;2023-02-13T00:42:14;99815.66;;;0.29;100.0
64025;BME280;50266;57.446;26.936;2023-02-13T00:43:15;99808.94;;;0.28;100.0
64025;BME280;50266;57.446;26.936;2023-02-13T00:44:14;99809.3;;;0.29;100.0
64025;BME280;50266;57.446;26.936;2023-02-13T00:45:15;99809.33;;;0.33;100.0
64025;BME280;50266;57.446;26.936;2023-02-13T00:46:15;99817.86;;;0.28;100.0
64025;BME280;50266;57.446;26.936;2023-02-13T00:47:15;99814.41;;;0.29;100.0
64025;BME280;50266;57.446;26.936;2023-02-13T00:48:15;99809.01;;;0.27;100.0
64025;BME280;50266;57.446;26.936;2023-02-13T00:49:15;99803.61;;;0.3;100.0
64025;BME280;50266;57.446;26.936;2023-02-13T00:50:15;99798.76;;;0.22;100.0
64025;BME280;50266;57.446;26.936;2023-02-13T00:51:15;99797.69;;;0.26;100.0
64025;BME280;50266;57.446;26.936;2023-02-13T00:52:15;99800.34;;;0.27;100.0
64025;BME280;50266;57.446;26.936;2023-02-13T00:53:15;99791.75;;;0.26;100.0
64025;BME280;50266;57.446;26.936;2023-02-13T00:54:15;99787.33;;;0.3;100.0
64025;BME280;50266;57.446;26.936;2023-02-13T00:55:15;99788.83;;;0.26;100.0
64025;BME280;50266;57.446;26.936;2023-02-13T00:56:15;99784.99;;;0.24;100.0
64025;BME280;50266;57.446;26.936;2023-02-13T00:57:15;99793.69;;;0.28;100.0
64025;BME280;50266;57.446;26.936;2023-02-13T00:58:15;99789.22;;;0.31;100.0
64025;BME280;50266;57.446;26.936;2023-02-13T00:59:15;99792.42;;;0.28;100.0
64025;BME280;50266;57.446;26.936;2023-02-13T01:00:15;99776.8;;;0.31;100.0
64025;BME280;50266;57.446;26.936;2023-02-13T01:01:15;99787.31;;;0.28;100.0
64025;BME280;50266;57.446;26.936;2023-02-13T01:02:15;99788.05;;;0.29;100.0
64025;BME280;50266;57.446;26.936;2023-02-13T01:03:15;99781.06;;;0.25;100.0
64025;BME280;50266;57.446;26.936;2023-02-13T01:04:15;99796.1;;;0.29;100.0
64025;BME280;50266;57.446;26.936;2023-02-13T01:05:15;99793.22;;;0.29;100.0
64025;BME280;50266;57.446;26.936;2023-02-13T01:06:15;99787.92;;;0.27;100.0
64025;BME280;50266;57.446;26.936;2023-02-13T01:07:15;99784.98;;;0.27;100.0
64025;BME280;50266;57.446;26.936;2023-02-13T01:08:15;99786.53;;;0.26;100.0
64025;BME280;50266;57.446;26.936;2023-02-13T01:09:15;99780.25;;;0.29;100.0
64025;BME280;50266;57.446;26.936;2023-02-13T01:10:15;99789.06;;;0.27;100.0
64025;BME280;50266;57.446;26.936;2023-02-13T01:11:15;99777.69;;;0.3;100.0
64025;BME280;50266;57.446;26.936;2023-02-13T01:12:15;99781.36;;;0.29;100.0
64025;BME280;50266;57.446;26.936;2023-02-13T01:13:16;99788.44;;;0.29;100.0
64025;BME280;50266;57.446;26.936;2023-02-13T01:14:15;99773.81;;;0.33;100.0
64025;BME280;50266;57.446;26.936;2023-02-13T01:15:15;99769.03;;;0.3;100.0
64025;BME280;50266;57.446;26.936;2023-02-13T01:16:15;99770.8;;;0.31;100.0
64025;BME280;50266;57.446;26.936;2023-02-13T01:17:15;99768.0;;;0.32;100.0
64025;BME280;50266;57.446;26.936;2023-02-13T01:18:16;99764.14;;;0.32;100.0
64025;BME280;50266;57.446;26.936;2023-02-13T01:19:15;99760.55;;;0.32;100.0
64025;BME280;50266;57.446;26.936;2023-02-13T01:20:15;99765.28;;;0.29;100.0
64025;BME280;50266;57.446;26.936;2023-02-13T01:21:16;99758.59;;;0.29;100.0
64025;BME280;50266;57.446;26.936;2023-02-13T01:22:15;99758.67;;;0.3;100.0
64025;BME280;50266;57.446;26.936;2023-02-13T01:23:15;99749.03;;;0.3;100.0
64025;BME280;50266;57.446;26.936;2023-02-13T01:24:15;99752.87;;;0.32;100.0
64025;BME280;50266;57.446;26.936;2023-02-13T01:25:15;99754.94;;;0.29;100.0
64025;BME280;50266;57.446;26.936;2023-02-13T01:26:16;99756.39;;;0.27;100.0
64025;BME280;50266;57.446;26.936;2023-02-13T01:27:15;99754.37;;;0.28;100.0
64025;BME280;50266;57.446;26.936;2023-02-13T01:28:15;99746.7;;;0.27;100.0
64025;BME280;50266;57.446;26.936;2023-02-13T01:29:15;99749.27;;;0.29;100.0
64025;BME280;50266;57.446;26.936;2023-02-13T01:30:15;99751.0;;;0.27;100.0
64025;BME280;50266;57.446;26.936;2023-02-13T01:31:15;99751.05;;;0.28;100.0
64025;BME280;50266;57.446;26.936;2023-02-13T01:32:15;99746.05;;;0.27;100.0
64025;BME280;50266;57.446;26.936;2023-02-13T01:33:15;99752.24;;;0.25;100.0
64025;BME280;50266;57.446;26.936;2023-02-13T01:34:15;99746.16;;;0.24;100.0
64025;BME280;50266;57.446;26.936;2023-02-13T01:35:15;99753.51;;;0.24;100.0
64025;BME280;50266;57.446;26.936;2023-02-13T01:36:15;99750.38;;;0.26;100.0
64025;BME280;50266;57.446;26.936;2023-02-13T01:37:15;99757.68;;;0.28;100.0
64025;BME280;50266;57.446;26.936;2023-02-13T01:38:15;99752.69;;;0.3;100.0
64025;BME280;50266;57.446;26.936;2023-02-13T01:39:15;99739.68;;;0.27;100.0
64025;BME280;50266;57.446;26.936;2023-02-13T01:40:15;99743.95;;;0.28;100.0
64025;BME280;50266;57.446;26.936;2023-02-13T01:41:15;99743.2;;;0.25;100.0
64025;BME280;50266;57.446;26.936;2023-02-13T01:42:16;99746.95;;;0.25;100.0
64025;BME280;50266;57.446;26.936;2023-02-13T01:43:17;99747.09;;;0.27;100.0
64025;BME280;50266;57.446;26.936;2023-02-13T01:45:26;99732.03;;;0.28;100.0
64025;BME280;50266;57.446;26.936;2023-02-13T01:46:27;99733.13;;;0.22;100.0
64025;BME280;50266;57.446;26.936;2023-02-13T01:48:29;99743.86;;;0.28;100.0
64025;BME280;50266;57.446;26.936;2023-02-13T01:49:29;99748.78;;;0.26;100.0
64025;BME280;50266;57.446;26.936;2023-02-13T01:50:47;99751.19;;;0.31;100.0
64025;BME280;50266;57.446;26.936;2023-02-13T01:51:30;99744.76;;;0.29;100.0
64025;BME280;50266;57.446;26.936;2023-02-13T01:52:29;99745.22;;;0.28;100.0
64025;BME280;50266;57.446;26.936;2023-02-13T01:53:31;99746.08;;;0.28;100.0
64025;BME280;50266;57.446;26.936;2023-02-13T01:54:30;99749.2;;;0.27;100.0
64025;BME280;50266;57.446;26.936;2023-02-13T01:55:29;99749.7;;;0.27;100.0
64025;BME280;50266;57.446;26.936;2023-02-13T01:56:34;99747.94;;;0.31;100.0
64025;BME280;50266;57.446;26.936;2023-02-13T01:57:31;99761.2;;;0.29;100.0
64025;BME280;50266;57.446;26.936;2023-02-13T01:58:31;99751.48;;;0.27;100.0
64025;BME280;50266;57.446;26.936;2023-02-13T01:59:32;99745.05;;;0.25;100.0
64025;BME280;50266;57.446;26.936;2023-02-13T02:00:31;99750.22;;;0.28;100.0
64025;BME280;50266;57.446;26.936;2023-02-13T02:01:31;99740.97;;;0.22;100.0
64025;BME280;50266;57.446;26.936;2023-02-13T02:02:32;99742.31;;;0.26;100.0
64025;BME280;50266;57.446;26.936;2023-02-13T02:04:33;99734.16;;;0.25;100.0
64025;BME280;50266;57.446;26.936;2023-02-13T02:05:33;99741.58;;;0.24;100.0
64025;BME280;50266;57.446;26.936;2023-02-13T02:06:37;99737.67;;;0.26;100.0
64025;BME280;50266;57.446;26.936;2023-02-13T02:07:35;99738.09;;;0.25;100.0
64025;BME280;50266;57.446;26.936;2023-02-13T02:08:35;99741.55;;;0.23;100.0
64025;BME280;50266;57.446;26.936;2023-02-13T02:09:36;99738.61;;;0.26;100.0
64025;BME280;50266;57.446;26.936;2023-02-13T02:10:35;99736.35;;;0.27;100.0
64025;BME280;50266;57.446;26.936;2023-02-13T02:11:36;99736.48;;;0.23;100.0
64025;BME280;50266;57.446;26.936;2023-02-13T02:13:37;99740.62;;;0.28;100.0
64025;BME280;50266;57.446;26.936;2023-02-13T02:14:38;99735.18;;;0.26;100.0
64025;BME280;50266;57.446;26.936;2023-02-13T02:15:37;99736.74;;;0.21;100.0
64025;BME280;50266;57.446;26.936;2023-02-13T02:16:37;99732.41;;;0.26;100.0
64025;BME280;50266;57.446;26.936;2023-02-13T02:17:37;99728.86;;;0.24;100.0
64025;BME280;50266;57.446;26.936;2023-02-13T02:18:37;99727.62;;;0.25;100.0
64025;BME280;50266;57.446;26.936;2023-02-13T02:21:51;99722.88;;;0.23;100.0
64025;BME280;50266;57.446;26.936;2023-02-13T02:23:02;99718.5;;;0.24;100.0
64025;BME280;50266;57.446;26.936;2023-02-13T02:27:14;99715.28;;;0.22;100.0
64025;BME280;50266;57.446;26.936;2023-02-13T02:32:29;99712.87;;;0.19;100.0
64025;BME280;50266;57.446;26.936;2023-02-13T02:33:46;99704.6;;;0.22;100.0
64025;BME280;50266;57.446;26.936;2023-02-13T02:36:43;99699.72;;;0.24;100.0
64025;BME280;50266;57.446;26.936;2023-02-13T02:37:47;99700.69;;;0.22;100.0
64025;BME280;50266;57.446;26.936;2023-02-13T02:39:02;99692.04;;;0.24;100.0
64025;BME280;50266;57.446;26.936;2023-02-13T02:39:52;99693.62;;;0.21;100.0
64025;BME280;50266;57.446;26.936;2023-02-13T02:41:58;99696.98;;;0.18;100.0
64025;BME280;50266;57.446;26.936;2023-02-13T02:43:54;99698.99;;;0.22;100.0
64025;BME280;50266;57.446;26.936;2023-02-13T02:46:10;99699.94;;;0.21;100.0
64025;BME280;50266;57.446;26.936;2023-02-13T02:48:09;99704.14;;;0.23;100.0
64025;BME280;50266;57.446;26.936;2023-02-13T02:49:12;99705.21;;;0.21;100.0
64025;BME280;50266;57.446;26.936;2023-02-13T02:50:26;99709.35;;;0.27;100.0
64025;BME280;50266;57.446;26.936;2023-02-13T02:51:20;99705.44;;;0.27;100.0
64025;BME280;50266;57.446;26.936;2023-02-13T02:52:19;99704.65;;;0.25;100.0
64025;BME280;50266;57.446;26.936;2023-02-13T02:54:20;99702.94;;;0.23;100.0
64025;BME280;50266;57.446;26.936;2023-02-13T02:56:24;99708.46;;;0.25;100.0
64025;BME280;50266;57.446;26.936;2023-02-13T02:57:24;99708.66;;;0.26;100.0
64025;BME280;50266;57.446;26.936;2023-02-13T02:58:23;99707.88;;;0.24;100.0
64025;BME280;50266;57.446;26.936;2023-02-13T02:59:23;99698.29;;;0.27;100.0
64025;BME280;50266;57.446;26.936;2023-02-13T03:00:24;99700.56;;;0.25;100.0
64025;BME280;50266;57.446;26.936;2023-02-13T03:01:24;99703.42;;;0.29;100.0
64025;BME280;50266;57.446;26.936;2023-02-13T03:02:23;99698.73;;;0.27;100.0
64025;BME280;50266;57.446;26.936;2023-02-13T03:03:23;99698.53;;;0.26;100.0
64025;BME280;50266;57.446;26.936;2023-02-13T03:04:31;99693.51;;;0.24;100.0
64025;BME280;50266;57.446;26.936;2023-02-13T03:05:29;99691.24;;;0.31;100.0
64025;BME280;50266;57.446;26.936;2023-02-13T03:06:36;99695.29;;;0.25;100.0
64025;BME280;50266;57.446;26.936;2023-02-13T03:07:30;99693.56;;;0.2;100.0
64025;BME280;50266;57.446;26.936;2023-02-13T03:08:30;99692.43;;;0.2;100.0
64025;BME280;50266;57.446;26.936;2023-02-13T03:09:36;99699.98;;;0.24;100.0
64025;BME280;50266;57.446;26.936;2023-02-13T03:10:35;99704.54;;;0.28;100.0
64025;BME280;50266;57.446;26.936;2023-02-13T03:11:34;99706.8;;;0.26;100.0
64025;BME280;50266;57.446;26.936;2023-02-13T03:12:36;99700.64;;;0.24;100.0
64025;BME280;50266;57.446;26.936;2023-02-13T03:13:38;99706.27;;;0.29;100.0
64025;BME280;50266;57.446;26.936;2023-02-13T03:14:36;99708.11;;;0.26;100.0
64025;BME280;50266;57.446;26.936;2023-02-13T03:15:37;99701.67;;;0.24;100.0
64025;BME280;50266;57.446;26.936;2023-02-13T03:16:36;99707.72;;;0.27;100.0
64025;BME280;50266;57.446;26.936;2023-02-13T03:17:36;99712.5;;;0.24;100.0
64025;BME280;50266;57.446;26.936;2023-02-13T03:18:40;99711.52;;;0.24;100.0
64025;BME280;50266;57.446;26.936;2023-02-13T03:20:46;99705.94;;;0.23;100.0
64025;BME280;50266;57.446;26.936;2023-02-13T03:21:55;99712.02;;;0.22;100.0
64025;BME280;50266;57.446;26.936;2023-02-13T03:23:50;99714.2;;;0.27;100.0
64025;BME280;50266;57.446;26.936;2023-02-13T03:27:10;99703.77;;;0.25;100.0
64025;BME280;50266;57.446;26.936;2023-02-13T03:27:56;99712.06;;;0.25;100.0
64025;BME280;50266;57.446;26.936;2023-02-13T03:28:56;99716.2;;;0.27;100.0
64025;BME280;50266;57.446;26.936;2023-02-13T03:29:59;99715.99;;;0.27;100.0
64025;BME280;50266;57.446;26.936;2023-02-13T03:31:20;99708.99;;;0.28;100.0
64025;BME280;50266;57.446;26.936;2023-02-13T03:32:05;99704.47;;;0.26;100.0
64025;BME280;50266;57.446;26.936;2023-02-13T03:34:09;99714.36;;;0.27;100.0
64025;BME280;50266;57.446;26.936;2023-02-13T03:35:20;99713.45;;;0.23;100.0
64025;BME280;50266;57.446;26.936;2023-02-13T03:37:18;99714.59;;;0.23;100.0
64025;BME280;50266;57.446;26.936;2023-02-13T03:38:36;99712.99;;;0.24;100.0
64025;BME280;50266;57.446;26.936;2023-02-13T03:40:35;99710.63;;;0.23;100.0
64025;BME280;50266;57.446;26.936;2023-02-13T03:41:32;99714.64;;;0.24;100.0
64025;BME280;50266;57.446;26.936;2023-02-13T03:42:36;99713.05;;;0.24;100.0
64025;BME280;50266;57.446;26.936;2023-02-13T03:43:40;99716.9;;;0.25;100.0
64025;BME280;50266;57.446;26.936;2023-02-13T03:45:43;99712.62;;;0.24;100.0
64025;BME280;50266;57.446;26.936;2023-02-13T03:46:46;99705.8;;;0.22;100.0
64025;BME280;50266;57.446;26.936;2023-02-13T03:47:43;99715.89;;;0.21;100.0
64025;BME280;50266;57.446;26.936;2023-02-13T03:48:43;99709.7;;;0.26;100.0
64025;BME280;50266;57.446;26.936;2023-02-13T03:49:46;99707.48;;;0.25;100.0
64025;BME280;50266;57.446;26.936;2023-02-13T03:50:44;99705.0;;;0.26;100.0
64025;BME280;50266;57.446;26.936;2023-02-13T03:51:47;99709.43;;;0.26;100.0
64025;BME280;50266;57.446;26.936;2023-02-13T03:52:51;99709.98;;;0.25;100.0
64025;BME280;50266;57.446;26.936;2023-02-13T03:53:49;99721.45;;;0.26;100.0
64025;BME280;50266;57.446;26.936;2023-02-13T03:54:58;99722.78;;;0.25;100.0
64025;BME280;50266;57.446;26.936;2023-02-13T03:55:50;99714.31;;;0.24;100.0
64025;BME280;50266;57.446;26.936;2023-02-13T03:56:50;99714.09;;;0.27;100.0
64025;BME280;50266;57.446;26.936;2023-02-13T03:57:53;99717.42;;;0.24;100.0
64025;BME280;50266;57.446;26.936;2023-02-13T03:58:51;99710.72;;;0.24;100.0
64025;BME280;50266;57.446;26.936;2023-02-13T03:59:51;99717.2;;;0.27;100.0
64025;BME280;50266;57.446;26.936;2023-02-13T04:00:51;99719.02;;;0.25;100.0
64025;BME280;50266;57.446;26.936;2023-02-13T04:02:01;99716.52;;;0.23;100.0
64025;BME280;50266;57.446;26.936;2023-02-13T04:03:07;99719.84;;;0.28;100.0
64025;BME280;50266;57.446;26.936;2023-02-13T04:04:09;99710.03;;;0.28;100.0
64025;BME280;50266;57.446;26.936;2023-02-13T04:05:09;99708.64;;;0.21;100.0
64025;BME280;50266;57.446;26.936;2023-02-13T04:06:08;99704.69;;;0.2;100.0
64025;BME280;50266;57.446;26.936;2023-02-13T04:07:10;99711.03;;;0.22;100.0
64025;BME280;50266;57.446;26.936;2023-02-13T04:08:07;99713.27;;;0.22;100.0
64025;BME280;50266;57.446;26.936;2023-02-13T04:09:07;99712.1;;;0.23;100.0
64025;BME280;50266;57.446;26.936;2023-02-13T04:10:09;99702.42;;;0.22;100.0
64025;BME280;50266;57.446;26.936;2023-02-13T04:12:15;99708.66;;;0.26;100.0
64025;BME280;50266;57.446;26.936;2023-02-13T04:13:15;99709.1;;;0.26;100.0
64025;BME280;50266;57.446;26.936;2023-02-13T04:14:20;99714.92;;;0.26;100.0
64025;BME280;50266;57.446;26.936;2023-02-13T04:15:19;99713.26;;;0.27;100.0
64025;BME280;50266;57.446;26.936;2023-02-13T04:16:17;99712.3;;;0.27;100.0
64025;BME280;50266;57.446;26.936;2023-02-13T04:17:18;99712.91;;;0.26;100.0
64025;BME280;50266;57.446;26.936;2023-02-13T04:18:20;99712.94;;;0.27;100.0
64025;BME280;50266;57.446;26.936;2023-02-13T04:19:17;99713.42;;;0.25;100.0
64025;BME280;50266;57.446;26.936;2023-02-13T04:20:18;99713.38;;;0.27;100.0
64025;BME280;50266;57.446;26.936;2023-02-13T04:21:17;99713.2;;;0.28;100.0
64025;BME280;50266;57.446;26.936;2023-02-13T04:22:19;99714.03;;;0.24;100.0
64025;BME280;50266;57.446;26.936;2023-02-13T04:23:18;99717.73;;;0.27;100.0
64025;BME280;50266;57.446;26.936;2023-02-13T04:24:18;99719.75;;;0.27;100.0
64025;BME280;50266;57.446;26.936;2023-02-13T04:25:18;99721.61;;;0.27;100.0
64025;BME280;50266;57.446;26.936;2023-02-13T04:26:21;99713.95;;;0.26;100.0
64025;BME280;50266;57.446;26.936;2023-02-13T04:27:18;99718.8;;;0.25;100.0
64025;BME280;50266;57.446;26.936;2023-02-13T04:28:18;99712.7;;;0.28;100.0
64025;BME280;50266;57.446;26.936;2023-02-13T04:29:19;99713.01;;;0.24;100.0
64025;BME280;50266;57.446;26.936;2023-02-13T04:30:18;99717.27;;;0.26;100.0
64025;BME280;50266;57.446;26.936;2023-02-13T04:31:18;99713.5;;;0.27;100.0
64025;BME280;50266;57.446;26.936;2023-02-13T04:32:18;99705.79;;;0.25;100.0
64025;BME280;50266;57.446;26.936;2023-02-13T04:33:18;99700.92;;;0.24;100.0
64025;BME280;50266;57.446;26.936;2023-02-13T04:34:18;99703.48;;;0.26;100.0
64025;BME280;50266;57.446;26.936;2023-02-13T04:35:18;99703.1;;;0.23;100.0
64025;BME280;50266;57.446;26.936;2023-02-13T04:36:18;99701.47;;;0.26;100.0
64025;BME280;50266;57.446;26.936;2023-02-13T04:37:18;99693.66;;;0.25;100.0
64025;BME280;50266;57.446;26.936;2023-02-13T04:38:18;99701.48;;;0.28;100.0
64025;BME280;50266;57.446;26.936;2023-02-13T04:39:18;99703.47;;;0.27;100.0
64025;BME280;50266;57.446;26.936;2023-02-13T04:40:18;99700.73;;;0.27;100.0
64025;BME280;50266;57.446;26.936;2023-02-13T04:41:18;99699.94;;;0.26;100.0
64025;BME280;50266;57.446;26.936;2023-02-13T04:42:18;99706.55;;;0.25;100.0
64025;BME280;50266;57.446;26.936;2023-02-13T04:43:18;99699.77;;;0.24;100.0
64025;BME280;50266;57.446;26.936;2023-02-13T04:44:18;99700.72;;;0.28;100.0
64025;BME280;50266;57.446;26.936;2023-02-13T04:45:18;99700.95;;;0.25;100.0
64025;BME280;50266;57.446;26.936;2023-02-13T04:46:18;99700.05;;;0.29;100.0
64025;BME280;50266;57.446;26.936;2023-02-13T04:47:18;99708.02;;;0.25;100.0
64025;BME280;50266;57.446;26.936;2023-02-13T04:48:18;99708.89;;;0.25;100.0
64025;BME280;50266;57.446;26.936;2023-02-13T04:49:18;99709.14;;;0.29;100.0
64025;BME280;50266;57.446;26.936;2023-02-13T04:50:18;99705.12;;;0.26;100.0
64025;BME280;50266;57.446;26.936;2023-02-13T04:51:18;99715.58;;;0.26;100.0
64025;BME280;50266;57.446;26.936;2023-02-13T04:52:18;99706.45;;;0.3;100.0
64025;BME280;50266;57.446;26.936;2023-02-13T04:53:18;99710.55;;;0.27;100.0
64025;BME280;50266;57.446;26.936;2023-02-13T04:54:18;99704.14;;;0.26;100.0
64025;BME280;50266;57.446;26.936;2023-02-13T04:55:18;99714.62;;;0.27;100.0
64025;BME280;50266;57.446;26.936;2023-02-13T04:56:18;99709.83;;;0.27;100.0
64025;BME280;50266;57.446;26.936;2023-02-13T04:57:18;99716.06;;;0.31;100.0
64025;BME280;50266;57.446;26.936;2023-02-13T04:58:18;99717.0;;;0.28;100.0
64025;BME280;50266;57.446;26.936;2023-02-13T04:59:18;99715.33;;;0.28;100.0
64025;BME280;50266;57.446;26.936;2023-02-13T05:00:19;99714.03;;;0.27;100.0
64025;BME280;50266;57.446;26.936;2023-02-13T05:01:18;99718.74;;;0.23;100.0
64025;BME280;50266;57.446;26.936;2023-02-13T05:02:18;99715.72;;;0.27;100.0
64025;BME280;50266;57.446;26.936;2023-02-13T05:03:18;99708.48;;;0.29;100.0
64025;BME280;50266;57.446;26.936;2023-02-13T05:04:19;99712.08;;;0.32;100.0
64025;BME280;50266;57.446;26.936;2023-02-13T05:05:19;99710.02;;;0.29;100.0
64025;BME280;50266;57.446;26.936;2023-02-13T05:06:18;99706.14;;;0.29;100.0
64025;BME280;50266;57.446;26.936;2023-02-13T05:07:19;99709.78;;;0.3;100.0
64025;BME280;50266;57.446;26.936;2023-02-13T05:08:19;99708.33;;;0.29;100.0
64025;BME280;50266;57.446;26.936;2023-02-13T05:09:19;99705.77;;;0.26;100.0
64025;BME280;50266;57.446;26.936;2023-02-13T05:10:19;99701.5;;;0.25;100.0
64025;BME280;50266;57.446;26.936;2023-02-13T05:11:19;99698.98;;;0.25;100.0
64025;BME280;50266;57.446;26.936;2023-02-13T05:12:19;99702.8;;;0.3;100.0
64025;BME280;50266;57.446;26.936;2023-02-13T05:13:19;99701.12;;;0.27;100.0
64025;BME280;50266;57.446;26.936;2023-02-13T05:14:19;99701.98;;;0.27;100.0
64025;BME280;50266;57.446;26.936;2023-02-13T05:15:19;99704.3;;;0.29;100.0
64025;BME280;50266;57.446;26.936;2023-02-13T05:16:19;99696.94;;;0.24;100.0
64025;BME280;50266;57.446;26.936;2023-02-13T05:17:19;99696.33;;;0.24;100.0
64025;BME280;50266;57.446;26.936;2023-02-13T05:18:19;99694.81;;;0.24;100.0
64025;BME280;50266;57.446;26.936;2023-02-13T05:19:19;99693.88;;;0.24;100.0
64025;BME280;50266;57.446;26.936;2023-02-13T05:20:19;99694.63;;;0.27;100.0
64025;BME280;50266;57.446;26.936;2023-02-13T05:21:19;99700.0;;;0.26;100.0
64025;BME280;50266;57.446;26.936;2023-02-13T05:22:19;99697.43;;;0.24;100.0
64025;BME280;50266;57.446;26.936;2023-02-13T05:23:19;99702.41;;;0.28;100.0
64025;BME280;50266;57.446;26.936;2023-02-13T05:24:19;99700.84;;;0.25;100.0
64025;BME280;50266;57.446;26.936;2023-02-13T05:25:19;99698.88;;;0.3;100.0
64025;BME280;50266;57.446;26.936;2023-02-13T05:26:19;99702.22;;;0.29;100.0
64025;BME280;50266;57.446;26.936;2023-02-13T05:27:19;99705.39;;;0.29;100.0
64025;BME280;50266;57.446;26.936;2023-02-13T05:28:19;99698.31;;;0.28;100.0
64025;BME280;50266;57.446;26.936;2023-02-13T05:29:19;99694.47;;;0.27;100.0
64025;BME280;50266;57.446;26.936;2023-02-13T05:30:19;99696.36;;;0.28;100.0
64025;BME280;50266;57.446;26.936;2023-02-13T05:31:19;99686.7;;;0.26;100.0
64025;BME280;50266;57.446;26.936;2023-02-13T05:32:19;99677.29;;;0.26;100.0
64025;BME280;50266;57.446;26.936;2023-02-13T05:33:19;99674.33;;;0.22;100.0
64025;BME280;50266;57.446;26.936;2023-02-13T05:34:19;99671.66;;;0.22;100.0
64025;BME280;50266;57.446;26.936;2023-02-13T05:35:22;99668.6;;;0.25;100.0
64025;BME280;50266;57.446;26.936;2023-02-13T05:36:19;99667.8;;;0.27;100.0
64025;BME280;50266;57.446;26.936;2023-02-13T05:37:19;99673.47;;;0.26;100.0
64025;BME280;50266;57.446;26.936;2023-02-13T05:38:19;99668.73;;;0.24;100.0
64025;BME280;50266;57.446;26.936;2023-02-13T05:39:19;99664.62;;;0.19;100.0
64025;BME280;50266;57.446;26.936;2023-02-13T05:40:19;99671.77;;;0.22;100.0
64025;BME280;50266;57.446;26.936;2023-02-13T05:41:19;99677.09;;;0.25;100.0
64025;BME280;50266;57.446;26.936;2023-02-13T05:42:19;99672.29;;;0.23;100.0
64025;BME280;50266;57.446;26.936;2023-02-13T05:43:19;99668.62;;;0.21;100.0
64025;BME280;50266;57.446;26.936;2023-02-13T05:44:19;99675.27;;;0.22;100.0
64025;BME280;50266;57.446;26.936;2023-02-13T05:45:19;99671.16;;;0.22;100.0
64025;BME280;50266;57.446;26.936;2023-02-13T05:46:19;99670.66;;;0.23;100.0
64025;BME280;50266;57.446;26.936;2023-02-13T05:47:19;99664.25;;;0.22;100.0
64025;BME280;50266;57.446;26.936;2023-02-13T05:48:19;99666.81;;;0.22;100.0
64025;BME280;50266;57.446;26.936;2023-02-13T05:49:19;99666.24;;;0.23;100.0
64025;BME280;50266;57.446;26.936;2023-02-13T05:50:19;99670.8;;;0.21;100.0
64025;BME280;50266;57.446;26.936;2023-02-13T05:51:19;99665.39;;;0.19;100.0
64025;BME280;50266;57.446;26.936;2023-02-13T05:52:19;99667.27;;;0.2;100.0